Terminal Aerodrome Forecast
Issued by NWS Miami, FL

Home | Current Version | Previous Version | Text Only | Print | Product List | Glossary On
Versions: 1 2 3 4 5 6 7 8 9 10 11 12 13 14 15 16 17 18 19 20 21 22 23 24 25 26 27 28 29 30 31 32 33 34 35 36 37 38 39 40 41 42 43 44 45 46 47 48 49 50
000
FTUS42 KMFL 191132
TAFPBI
TAF
KPBI 191132Z 1912/2012 21004KT P6SM SCT250
     FM191400 19012G18KT P6SM SCT035 SCT250
     FM191900 18012G20KT P6SM VCTS SCT030CB
     FM200200 VRB03KT P6SM BKN050
     FM200600 VRB03KT P6SM BKN250=

USA.gov is the U.S. government's official web portal to all federal, state and local government web resources and services.